createdAt,value
2023-05-08T00:00:34.042Z,4.95
2023-05-08T00:05:35.851Z,4.88
2023-05-08T00:10:40.214Z,4.93
2023-05-08T00:15:46.492Z,5.22
2023-05-08T00:20:48.199Z,5.40
2023-05-08T00:25:49.937Z,5.40
2023-05-08T00:30:52.358Z,4.80
2023-05-08T00:36:01.976Z,5.18
2023-05-08T00:41:06.035Z,5.30
2023-05-08T00:46:09.927Z,4.97
2023-05-08T00:51:14.512Z,4.57
2023-05-08T00:56:21.292Z,5.50
2023-05-08T01:01:23.836Z,5.40
2023-05-08T01:06:29.477Z,5.75
2023-05-08T01:11:37.031Z,5.20
2023-05-08T01:17:07.179Z,5.13
2023-05-08T01:22:26.456Z,5.57
2023-05-08T01:28:05.012Z,5.07
2023-05-08T01:33:30.629Z,5.82
2023-05-08T01:38:42.612Z,5.82
2023-05-08T01:44:09.736Z,5.35
2023-05-08T01:49:32.810Z,5.18
2023-05-08T01:54:41.397Z,5.28
2023-05-08T01:59:44.584Z,5.35
2023-05-08T02:04:47.132Z,5.72
2023-05-08T02:09:49.088Z,5.53
2023-05-08T02:14:53.366Z,5.35
2023-05-08T02:19:58.472Z,5.28
2023-05-08T02:25:01.212Z,5.32
2023-05-08T02:30:06.568Z,5.20
2023-05-08T02:35:09.545Z,5.47
2023-05-08T02:40:12.359Z,5.43
2023-05-08T02:45:14.625Z,5.73
2023-05-08T02:50:51.676Z,5.40
2023-05-08T02:55:58.159Z,6.67
2023-05-08T03:01:06.551Z,6.60
2023-05-08T03:06:13.340Z,6.47
2023-05-08T03:11:21.736Z,7.00
2023-05-08T03:16:25.718Z,6.90
2023-05-08T03:21:29.542Z,7.27
2023-05-08T03:26:34.387Z,6.90
2023-05-08T03:31:39.526Z,6.73
2023-05-08T03:36:42.967Z,6.93
2023-05-08T03:41:45.866Z,7.40
2023-05-08T03:46:50.887Z,7.47
2023-05-08T03:51:56.405Z,8.13
2023-05-08T03:56:58.275Z,7.03
2023-05-08T04:02:30.837Z,7.93
2023-05-08T04:07:39.557Z,7.60
2023-05-08T04:12:56.862Z,7.40
2023-05-08T04:18:15.009Z,8.00
2023-05-08T04:23:21.643Z,7.60
2023-05-08T04:28:25.108Z,7.70
2023-05-08T04:33:29.619Z,7.40
2023-05-08T04:38:36.954Z,8.30
2023-05-08T04:43:42.107Z,8.17
2023-05-08T04:48:43.957Z,7.53
2023-05-08T04:53:46.066Z,7.90
2023-05-08T04:58:48.104Z,7.70
2023-05-08T05:03:53.077Z,7.93
2023-05-08T05:09:02.716Z,8.03
2023-05-08T05:14:04.740Z,8.00
2023-05-08T05:19:07.140Z,7.90
2023-05-08T05:24:09.450Z,7.90
2023-05-08T05:29:11.432Z,7.10
2023-05-08T05:34:15.691Z,7.70
2023-05-08T05:39:17.542Z,8.13
2023-05-08T05:44:19.430Z,7.33
2023-05-08T05:49:23.582Z,7.27
2023-05-08T05:54:25.622Z,7.27
2023-05-08T05:59:30.093Z,7.30
2023-05-08T06:04:34.721Z,7.27
2023-05-08T06:09:38.771Z,7.55
2023-05-08T06:14:40.566Z,6.70
2023-05-08T06:19:42.383Z,7.20
2023-05-08T06:24:46.629Z,6.68
2023-05-08T06:29:53.086Z,6.32
2023-05-08T06:34:57.142Z,7.22
2023-05-08T06:40:11.624Z,7.05
2023-05-08T06:45:19.608Z,7.00
2023-05-08T06:50:21.446Z,6.78
2023-05-08T06:55:26.523Z,7.50
2023-05-08T07:00:28.304Z,7.38
2023-05-08T07:05:32.573Z,7.15
2023-05-08T07:10:38.805Z,7.33
2023-05-08T07:15:40.674Z,7.22
2023-05-08T07:20:42.461Z,6.85
2023-05-08T07:25:46.437Z,7.53
2023-05-08T07:30:48.207Z,7.20
2023-05-08T07:35:54.681Z,7.47
2023-05-08T07:41:02.126Z,7.43
2023-05-08T07:46:06.161Z,6.88
2023-05-08T07:51:11.229Z,7.13
2023-05-08T07:56:15.751Z,7.18
2023-05-08T08:01:18.268Z,7.32
2023-05-08T08:06:22.487Z,7.57
2023-05-08T08:11:24.260Z,6.80
2023-05-08T08:16:26.982Z,7.03
2023-05-08T08:21:28.897Z,7.25
2023-05-08T08:26:33.535Z,7.47
2023-05-08T08:31:37.770Z,6.97
2023-05-08T08:36:42.037Z,6.93
2023-05-08T08:41:44.009Z,6.75
2023-05-08T08:46:51.212Z,7.05
2023-05-08T08:52:01.920Z,7.50
2023-05-08T08:57:07.999Z,6.93
2023-05-08T09:02:17.903Z,6.47
2023-05-08T09:07:22.841Z,6.60
2023-05-08T09:12:27.037Z,6.57
2023-05-08T09:17:28.832Z,7.18
2023-05-08T09:22:30.658Z,7.47
2023-05-08T09:27:33.119Z,6.65
2023-05-08T09:32:37.907Z,7.05
2023-05-08T09:37:41.617Z,6.97
2023-05-08T09:42:43.854Z,7.18
2023-05-08T09:47:48.290Z,7.05
2023-05-08T09:52:54.827Z,7.85
2023-05-08T09:58:00.000Z,6.75
2023-05-08T10:03:03.255Z,7.38
2023-05-08T10:08:26.925Z,7.60
2023-05-08T10:13:31.137Z,9.85
2023-05-08T10:18:37.846Z,6.88
2023-05-08T10:23:40.162Z,6.95
2023-05-08T10:29:14.968Z,7.35
2023-05-08T10:34:22.952Z,7.35
2023-05-08T10:39:25.806Z,7.18
2023-05-08T10:44:29.512Z,6.90
2023-05-08T10:49:42.676Z,8.25
2023-05-08T10:55:04.351Z,7.40
2023-05-08T11:00:14.302Z,7.57
2023-05-08T11:05:17.225Z,7.22
2023-05-08T11:10:25.174Z,7.00
2023-05-08T11:15:42.130Z,7.07
2023-05-08T11:21:18.326Z,6.82
2023-05-08T11:26:22.933Z,6.72
2023-05-08T11:31:24.882Z,7.30
2023-05-08T11:36:29.573Z,7.07
2023-05-08T11:41:31.296Z,7.15
2023-05-08T11:46:50.664Z,7.40
2023-05-08T11:51:58.169Z,7.38
2023-05-08T11:57:03.200Z,7.80
2023-05-08T12:02:09.496Z,7.35
2023-05-08T12:07:14.062Z,7.65
2023-05-08T12:12:15.806Z,6.45
2023-05-08T12:17:19.153Z,7.03
2023-05-08T12:22:21.975Z,6.43
2023-05-08T12:27:27.222Z,6.47
2023-05-08T12:32:31.229Z,7.25
2023-05-08T12:37:35.503Z,7.72
2023-05-08T12:42:47.853Z,6.70
2023-05-08T12:47:54.290Z,6.40
2023-05-08T12:53:03.464Z,5.70
2023-05-08T12:58:15.258Z,5.68
2023-05-08T13:03:30.403Z,6.47
2023-05-08T13:08:37.197Z,6.35
2023-05-08T13:13:41.393Z,6.10
2023-05-08T13:18:45.668Z,6.07
2023-05-08T13:23:49.778Z,7.25
2023-05-08T13:28:52.132Z,6.43
2023-05-08T13:33:55.101Z,5.63
2023-05-08T13:38:57.463Z,7.00
2023-05-08T13:43:59.147Z,7.05
2023-05-08T13:49:00.886Z,5.47
2023-05-08T13:54:02.731Z,5.18
2023-05-08T13:59:04.593Z,5.80
2023-05-08T14:04:11.168Z,7.15
2023-05-08T14:09:15.346Z,8.05
2023-05-08T14:14:19.496Z,6.38
2023-05-08T14:19:23.472Z,4.63
2023-05-08T14:24:27.302Z,5.38
2023-05-08T14:29:29.101Z,5.40
2023-05-08T14:34:35.706Z,4.68
2023-05-08T14:39:37.611Z,5.60
2023-05-08T14:44:47.087Z,4.82
2023-05-08T14:49:48.871Z,4.88
2023-05-08T14:54:53.665Z,4.75
2023-05-08T15:00:00.212Z,4.88
2023-05-08T15:05:10.979Z,4.40
2023-05-08T15:10:21.340Z,5.30
2023-05-08T15:15:25.401Z,4.20
2023-05-08T15:20:27.093Z,5.25
2023-05-08T15:25:31.058Z,4.80
2023-05-08T15:30:32.793Z,4.65
2023-05-08T15:35:34.621Z,4.60
2023-05-08T15:40:41.622Z,4.07
2023-05-08T15:45:43.376Z,4.07
2023-05-08T15:50:45.040Z,4.10
2023-05-08T15:55:49.152Z,3.80
2023-05-08T16:00:53.531Z,3.97
2023-05-08T16:05:55.511Z,4.10
2023-05-08T16:10:57.264Z,3.70
2023-05-08T16:16:06.267Z,2.97
2023-05-08T16:21:12.232Z,3.53
2023-05-08T16:26:16.681Z,3.42
2023-05-08T16:31:20.815Z,2.83
2023-05-08T16:36:22.681Z,3.05
2023-05-08T16:41:27.948Z,2.70
2023-05-08T16:46:34.317Z,2.40
2023-05-08T16:51:36.061Z,3.03
2023-05-08T16:56:37.859Z,3.00
2023-05-08T17:01:42.131Z,3.15
2023-05-08T17:06:46.199Z,2.80
2023-05-08T17:11:50.379Z,3.30
2023-05-08T17:16:54.225Z,3.42
2023-05-08T17:21:57.554Z,3.08
2023-05-08T17:27:01.547Z,3.40
2023-05-08T17:32:05.781Z,3.40
2023-05-08T17:37:09.795Z,3.20
2023-05-08T17:42:11.510Z,3.42
2023-05-08T17:47:13.618Z,3.30
2023-05-08T17:52:17.743Z,3.75
2023-05-08T17:57:19.474Z,3.15
2023-05-08T18:02:21.182Z,3.42
2023-05-08T18:07:25.347Z,3.05
2023-05-08T18:12:27.067Z,3.45
2023-05-08T18:17:29.628Z,3.05
2023-05-08T18:22:31.367Z,2.72
2023-05-08T18:27:35.639Z,2.90
2023-05-08T18:32:42.101Z,3.08
2023-05-08T18:37:46.073Z,3.50
2023-05-08T18:42:47.853Z,2.90
2023-05-08T18:47:49.707Z,3.03
2023-05-08T18:52:51.504Z,3.20
2023-05-08T18:57:54.132Z,3.40
2023-05-08T19:02:58.163Z,3.33
2023-05-08T19:08:02.651Z,3.70
2023-05-08T19:13:04.533Z,3.65
2023-05-08T19:18:06.591Z,3.42
2023-05-08T19:23:08.315Z,3.50
2023-05-08T19:28:09.981Z,3.30
2023-05-08T19:33:11.817Z,3.78
2023-05-08T19:38:16.089Z,3.70
2023-05-08T19:43:20.000Z,3.70
2023-05-08T19:48:21.995Z,3.78
2023-05-08T19:53:23.850Z,3.30
2023-05-08T19:58:30.546Z,3.30
2023-05-08T20:03:35.410Z,3.40
2023-05-08T20:08:37.165Z,4.05
2023-05-08T20:13:39.328Z,3.95
2023-05-08T20:18:46.234Z,4.10
2023-05-08T20:23:48.369Z,3.92
2023-05-08T20:28:53.422Z,3.75
2023-05-08T20:33:57.660Z,4.47
2023-05-08T20:38:59.327Z,4.22
2023-05-08T20:44:03.281Z,4.25
2023-05-08T20:49:06.044Z,4.00
2023-05-08T20:54:10.112Z,4.30
2023-05-08T20:59:11.948Z,4.25
2023-05-08T21:04:13.675Z,3.75
2023-05-08T21:09:18.006Z,3.60
2023-05-08T21:14:24.591Z,3.78
2023-05-08T21:19:26.290Z,3.70
2023-05-08T21:24:30.414Z,3.97
2023-05-08T21:29:34.925Z,3.13
2023-05-08T21:34:36.646Z,3.63
2023-05-08T21:39:41.328Z,3.85
2023-05-08T21:44:43.202Z,3.25
2023-05-08T21:49:44.907Z,3.47
2023-05-08T21:54:52.453Z,3.50
2023-05-08T21:59:56.657Z,3.35
2023-05-08T22:05:00.812Z,3.40
2023-05-08T22:10:02.523Z,3.30
2023-05-08T22:15:09.447Z,3.47
2023-05-08T22:20:19.814Z,3.25
2023-05-08T22:25:25.231Z,3.38
2023-05-08T22:30:29.271Z,3.20
2023-05-08T22:35:35.725Z,3.50
2023-05-08T22:40:37.416Z,3.25
2023-05-08T22:45:41.482Z,3.47
2023-05-08T22:50:45.699Z,3.40
2023-05-08T22:55:49.734Z,3.47
2023-05-08T23:00:53.850Z,3.40
2023-05-08T23:05:55.658Z,3.55
2023-05-08T23:10:57.370Z,3.20
2023-05-08T23:16:04.370Z,3.67
2023-05-08T23:21:08.664Z,3.53
2023-05-08T23:26:12.617Z,3.67
2023-05-08T23:31:17.072Z,3.58
2023-05-08T23:36:21.246Z,3.42
2023-05-08T23:41:26.193Z,3.70
2023-05-08T23:46:28.007Z,3.75
2023-05-08T23:51:29.739Z,3.75
2023-05-08T23:56:35.957Z,4.32
